Terminal Aerodrome Forecast
Issued by NWS Columbia, SC

Home | Current Version | Previous Version | Text Only | Print | Product List | Glossary On
Versions: 1 2 3 4 5 6 7 8 9 10 11 12 13 14 15 16 17 18 19 20 21 22 23 24 25 26 27 28 29 30 31
000
FTUS42 KCAE 240500
TAFCAE
TAF
KCAE 240539Z 2406/2506 21008KT P6SM OVC015
     FM241800 22014G25KT P6SM BKN025
     FM242100 23012G20KT P6SM SCT015 BKN035
     FM242300 25005KT P6SM OVC050=

USA.gov is the U.S. government's official web portal to all federal, state and local government web resources and services.